Hlavní strana
METAR-TAF:

METAR-TAF

Letiště :

Talladega, Alabama, Spojené státy americké

zeměpisná šířka: 33-34-10N, zeměpisná délka: 086-03-04W, výška: 160 m

Aktuální stav počasí

Zpráva byla vytvořena před 12 minutami, v 17:15 UTC
Severní vítr 4 kt
Teplota 6°C
Vlhkost vzduchu 87%
Tlak 1023 hPa
Viditelnost: 16.1 km
Polojasno ve výšce 3500 ft
Polojasno ve výšce 4400 ft
Zataženo ve výšce 6500 ft
slabý déšť

METAR: KASN 151715Z AUTO 35004KT 10SM -RA SCT035 SCT044 OVC065 06/04 A3022 RMK AO2 P0001 T00580040

Čas: 11:27 (17:27 UTC)

Předpověď počasí

Zpráva byla vytvořena před 6 hodinami a 5 minutami, v 11:22 UTC
Předpověď platná od 15 v 12 UTC do 16 v 12 UTC
Severní vítr 4 kt
Viditelnost: 10 km
Zataženo ve výšce 4000 ft
slabý déšť
Od 15 v 2100 UTC
Severní vítr 8 kt
Viditelnost: 10 km
Zataženo ve výšce 8000 ft
Od 16 v 0500 UTC
Severní vítr 6 kt
Viditelnost: 10 km
Polojasno ve výšce 10000 ft

TAF: KASN 151122Z 1512/1612 35004KT P6SM -RA OVC040 FM152100 36008KT P6SM OVC080 FM160500 35006KT P6SM SCT100

Stav a předpovědi počasí z více než 4 000 letišť (zprávy METAR a TAF).

Červené a žluté tečky na mapě představují dostupné meteorologické stanice.

Když kurzor umístíte na tečku, zobrazí se název stanice.

Pak kliknutím zobrazíte stav a předpověď počasí.

Chcete-li změnit mapu, kliknutím na zelené tlačítko se znaménkem +mapu přiblížíte, kliknutím na zelené tlačítko se znaménkem – mapu oddálíte a kliknutím na zelené šipky přejdete na sousední mapy.


METAR-TAF: